M I D A S
Marine Information and Data Acquisition System
Tripno 2205 of the Zeeleeuw from 2011-10-25 07:10:08 to 2011-10-25 15:10:04
Back to CruiseResearch ActivitiesStationsMapUnderway DataData graphs

EquipmentUnitsComments
TimeDGPSUTC
LatitudeDGPSDM.mWGS84
LongitudeDGPSDM.mWGS84
SpeedMeteo Stationm/sRelative wind speed
DirectionMeteo StationdegRelative wind direction
TemperatureMeteo Stationdeg CelciusAir temperature
PressureMeteo StationPaAtmospheric pressure
HumidityMeteo Station%Relative humidity
Missing or incorrect values are displayed as -999
Metereological data collected by the RV Zeeleeuw from 2011-10-25 06:49:53 to 2011-10-25 15:21:05
Time Latitude Longitude Speed Direction Temperature Pressure Humidity
2011-10-25 06:50 51°13.636 2°56.019 4.2 341 10.6 99850 58
2011-10-25 06:51 51°13.636 2°56.018 3.9 346 10.6 99850 58
2011-10-25 06:52 51°13.636 2°56.018 3.6 340 10.7 99850 57
2011-10-25 06:54 51°13.636 2°56.018 3.2 331 10.7 99850 58
2011-10-25 06:54 51°13.636 2°56.019 2.8 340 10.7 99850 58
2011-10-25 06:55 51°13.635 2°56.019 3.5 338 10.7 99860 57
2011-10-25 06:56 51°13.633 2°56.019 4.5 334 10.6 99860 58
2011-10-25 06:57 51°13.631 2°56.021 3 342 10.6 99860 58
2011-10-25 06:58 51°13.631 2°56.023 2.7 340 10.6 99860 57
2011-10-25 07:00 51°13.631 2°56.022 3.1 330 10.6 99860 58
2011-10-25 07:00 51°13.631 2°56.022 4.3 341 10.7 99860 57
2011-10-25 07:01 51°13.637 2°56.019 3.9 342 10.6 99860 57
2011-10-25 07:02 51°13.637 2°56.018 2.1 342 10.7 99860 57
2011-10-25 07:03 51°13.637 2°56.018 2.6 348 10.6 99860 57
2011-10-25 07:04 51°13.638 2°56.018 2.7 338 10.7 99870 58
2011-10-25 07:05 51°13.636 2°56.018 3 348 10.7 99870 58
2011-10-25 07:06 51°13.637 2°56.01 0.9 2 10.7 99870 57
2011-10-25 07:08 51°13.647 2°55.96 2.5 353 10.7 99870 57
2011-10-25 07:09 51°13.65 2°55.935 3.6 336 10.7 99870 55
2011-10-25 07:10 51°13.67 2°55.89 1.6 346 10.7 99870 58
2011-10-25 07:10 51°13.704 2°55.822 0.8 3 10.7 99870 57
2011-10-25 07:11 51°13.745 2°55.75 0.1 354 10.7 99870 59
2011-10-25 07:12 51°13.786 2°55.68 1.2 337 10.7 99870 59
2011-10-25 07:13 51°13.836 2°55.631 -999 35 10.7 99870 58
2011-10-25 07:15 51°13.895 2°55.619 2.1 254 10.7 99870 59
2011-10-25 07:15 51°13.943 2°55.657 3.5 33 10.7 99870 59
2011-10-25 07:16 51°13.962 2°55.688 3.1 37 10.7 99870 58
2011-10-25 07:17 51°13.989 2°55.611 0.4 267 10.7 99870 58
2011-10-25 07:18 51°14.076 2°55.49 -999 22 10.7 99870 58
2011-10-25 07:19 51°14.192 2°55.369 -999 15 10.7 99870 58
2011-10-25 07:21 51°14.314 2°55.259 -999 26 10.7 99860 58
2011-10-25 07:21 51°14.446 2°55.131 -999 31 10.7 99870 58
2011-10-25 07:22 51°14.577 2°54.973 -999 358 10.7 99860 58
2011-10-25 07:23 51°14.636 2°54.717 4.6 238 10.7 99860 58
2011-10-25 07:24 51°14.562 2°54.451 6.1 232 10.8 99850 56
2011-10-25 07:25 51°14.462 2°54.176 7.3 34 10.8 99850 58
2011-10-25 07:26 51°14.36 2°53.888 8 38 10.8 99840 58
2011-10-25 07:27 51°14.238 2°53.607 7.2 34 10.8 99840 57
2011-10-25 07:28 51°14.127 2°53.319 7.5 31 10.8 99850 58
2011-10-25 07:29 51°14.019 2°53.028 9 235 10.8 99850 57
2011-10-25 07:30 51°13.896 2°52.752 7.9 31 10.8 99850 57
2011-10-25 07:31 51°13.779 2°52.468 9 38 10.8 99840 58
2011-10-25 07:32 51°13.666 2°52.181 8.9 32 10.7 99840 56
2011-10-25 07:33 51°13.564 2°51.888 9 35 10.8 99850 57
2011-10-25 07:34 51°13.46 2°51.585 7.8 37 10.8 99850 57
2011-10-25 07:35 51°13.361 2°51.285 8.2 36 10.8 99850 58
2011-10-25 07:36 51°13.254 2°50.991 8.4 32 10.8 99850 57
2011-10-25 07:37 51°13.146 2°50.699 7.7 36 10.8 99850 58
2011-10-25 07:38 51°13.031 2°50.415 7.6 36 10.8 99840 58
2011-10-25 07:39 51°12.919 2°50.135 10.2 235 10.7 99850 57
2011-10-25 07:40 51°12.799 2°49.852 8.2 35 10.8 99850 57
2011-10-25 07:41 51°12.685 2°49.569 7.4 38 10.7 99850 58
2011-10-25 07:42 51°12.575 2°49.283 9 37 10.8 99850 58
2011-10-25 07:43 51°12.482 2°48.98 8 235 10.8 99850 58
2011-10-25 07:44 51°12.385 2°48.681 7.2 33 10.8 99860 58
2011-10-25 07:45 51°12.284 2°48.385 8.1 31 10.7 99850 57
2011-10-25 07:46 51°12.17 2°48.105 7.5 36 10.8 99850 57
2011-10-25 07:47 51°12.066 2°47.814 10.1 32 10.8 99850 58
2011-10-25 07:48 51°11.955 2°47.529 9.7 38 10.7 99850 56
2011-10-25 07:49 51°11.851 2°47.237 8.1 231 10.7 99850 58
2011-10-25 07:50 51°11.747 2°46.947 8 33 10.7 99850 57
2011-10-25 07:51 51°11.637 2°46.664 8.4 32 10.7 99840 58
2011-10-25 07:52 51°11.529 2°46.38 8.1 36 10.7 99850 58
2011-10-25 07:53 51°11.426 2°46.094 8.9 233 10.7 99840 58
2011-10-25 07:54 51°11.311 2°45.821 7.4 31 10.7 99840 58
2011-10-25 07:55 51°11.195 2°45.555 9.6 30 10.8 99840 57
2011-10-25 07:56 51°11.097 2°45.269 8.8 35 10.8 99840 57
2011-10-25 07:57 51°10.998 2°44.986 7.9 35 10.8 99830 58
2011-10-25 07:58 51°10.885 2°44.721 9 36 10.8 99830 57
2011-10-25 07:59 51°10.772 2°44.457 7.2 31 10.8 99840 59
2011-10-25 08:00 51°10.677 2°44.176 7.9 33 10.8 99830 58
2011-10-25 08:01 51°10.58 2°43.898 7.9 35 10.8 99830 58
2011-10-25 08:02 51°10.475 2°43.629 8.3 37 10.8 99830 58
2011-10-25 08:03 51°10.37 2°43.368 6.5 31 10.8 99830 58
2011-10-25 08:04 51°10.297 2°43.184 6.4 245 10.8 99830 59
2011-10-25 08:05 51°10.234 2°43.039 6.9 247 10.8 99830 58
2011-10-25 08:06 51°10.208 2°42.939 3.2 263 10.8 99840 59
2011-10-25 08:07 51°10.206 2°42.867 3.9 265 10.8 99840 57
2011-10-25 08:08 51°10.204 2°42.815 4.8 263 10.8 99840 59
2011-10-25 08:09 51°10.204 2°42.812 4.2 265 10.8 99840 59
2011-10-25 08:10 51°10.207 2°42.816 5.3 262 10.8 99840 59
2011-10-25 08:11 51°10.211 2°42.82 4 261 10.8 99840 58
2011-10-25 08:12 51°10.215 2°42.824 5.7 256 10.8 99830 59
2011-10-25 08:13 51°10.219 2°42.83 6.6 256 10.8 99830 58
2011-10-25 08:14 51°10.223 2°42.836 6.7 254 10.8 99840 58
2011-10-25 08:15 51°10.228 2°42.842 7.5 257 10.8 99840 58
2011-10-25 08:16 51°10.232 2°42.849 6.4 255 10.8 99840 59
2011-10-25 08:17 51°10.237 2°42.856 6.3 257 10.8 99830 59
2011-10-25 08:18 51°10.242 2°42.864 5.7 254 10.8 99840 59
2011-10-25 08:19 51°10.248 2°42.872 8.2 256 10.8 99840 57
2011-10-25 08:20 51°10.253 2°42.88 6 256 10.8 99840 59
2011-10-25 08:21 51°10.258 2°42.889 6.1 251 10.8 99850 58
2011-10-25 08:22 51°10.265 2°42.899 5.8 259 10.8 99850 58
2011-10-25 08:23 51°10.27 2°42.909 5.7 253 10.9 99840 59
2011-10-25 08:24 51°10.274 2°42.921 6.5 256 10.9 99850 58
2011-10-25 08:25 51°10.28 2°42.933 6.9 252 10.9 99850 59
2011-10-25 08:26 51°10.286 2°42.946 7.6 255 10.9 99850 59
2011-10-25 08:27 51°10.293 2°42.959 5.7 249 10.9 99850 59
2011-10-25 08:28 51°10.299 2°42.972 5.4 253 10.9 99850 59
2011-10-25 08:29 51°10.305 2°42.987 5.8 253 10.9 99840 58
2011-10-25 08:30 51°10.312 2°43.001 4.9 251 10.9 99840 59
2011-10-25 08:31 51°10.319 2°43.016 5.8 252 10.9 99840 59
2011-10-25 08:32 51°10.326 2°43.031 5.6 252 10.9 99840 58
2011-10-25 08:33 51°10.334 2°43.046 5.6 252 10.9 99850 58
2011-10-25 08:34 51°10.335 2°43.038 4.3 268 10.9 99840 59
2011-10-25 08:35 51°10.368 2°42.995 4 35 10.9 99850 58
2011-10-25 08:36 51°10.464 2°43.012 3.9 25 10.9 99850 59
2011-10-25 08:37 51°10.555 2°43.083 5.1 19 10.9 99850 58
2011-10-25 08:38 51°10.604 2°43.171 6.9 16 10.9 99850 57
2011-10-25 08:39 51°10.641 2°43.259 5.6 12 10.9 99840 57
2011-10-25 08:40 51°10.679 2°43.337 5.3 17 10.9 99840 59
2011-10-25 08:41 51°10.719 2°43.411 5.1 19 10.9 99840 59
2011-10-25 08:42 51°10.759 2°43.485 6.1 21 11 99840 59
2011-10-25 08:43 51°10.8 2°43.557 6.2 18 11 99840 58
2011-10-25 08:44 51°10.84 2°43.63 4.8 20 10.9 99840 58
2011-10-25 08:45 51°10.881 2°43.703 5.1 18 11 99840 58
2011-10-25 08:46 51°10.919 2°43.778 6 17 11 99840 59
2011-10-25 08:47 51°10.956 2°43.857 5.7 16 11 99840 59
2011-10-25 08:48 51°10.989 2°43.941 6.3 9 11 99840 59
2011-10-25 08:49 51°11.017 2°44.029 6.3 7 11 99850 58
2011-10-25 08:50 51°11.043 2°44.119 6.3 9 11 99840 59
2011-10-25 08:51 51°11.067 2°44.211 6 1 11 99850 59
2011-10-25 08:52 51°11.084 2°44.303 5.1 4 11 99840 58
2011-10-25 08:53 51°11.099 2°44.394 6.1 354 11 99840 58
2011-10-25 08:54 51°11.107 2°44.487 5.6 348 11 99840 58
2011-10-25 08:55 51°11.098 2°44.599 7.1 339 11 99840 58
2011-10-25 08:56 51°11.08 2°44.689 5.7 336 11.1 99840 59
2011-10-25 08:57 51°11.07 2°44.755 5.5 333 11.1 99840 59
2011-10-25 08:58 51°11.064 2°44.809 6.1 302 11.1 99850 58
2011-10-25 08:59 51°11.059 2°44.858 6.4 316 11.1 99850 59
2011-10-25 09:00 51°11.035 2°44.873 6.5 310 11.1 99840 59
2011-10-25 09:01 51°11.038 2°44.832 4.9 260 11.1 99850 59
2011-10-25 09:02 51°11.044 2°44.707 6.2 246 11.1 99850 59
2011-10-25 09:03 51°11.027 2°44.544 7.6 307 11.2 99850 59
2011-10-25 09:04 51°11.007 2°44.375 7.6 246 11.2 99850 59
2011-10-25 09:05 51°10.986 2°44.16 6.4 309 11.2 99850 59
2011-10-25 09:06 51°10.96 2°43.921 5.7 240 11.2 99840 59
2011-10-25 09:07 51°10.924 2°43.685 8.9 33 11.2 99850 58
2011-10-25 09:08 51°10.875 2°43.437 6.6 32 11.2 99850 59
2011-10-25 09:09 51°10.817 2°43.178 7.7 240 11.2 99840 58
2011-10-25 09:10 51°10.76 2°42.918 7.7 241 11.2 99840 58
2011-10-25 09:11 51°10.718 2°42.651 7.5 303 11.2 99840 58
2011-10-25 09:12 51°10.678 2°42.382 7.3 240 11.3 99840 58
2011-10-25 09:13 51°10.627 2°42.121 7.8 236 11.3 99840 58
2011-10-25 09:14 51°10.568 2°41.862 9.5 306 11.2 99840 58
2011-10-25 09:15 51°10.516 2°41.6 7.4 242 11.3 99840 59
2011-10-25 09:16 51°10.477 2°41.33 7.3 242 11.3 99840 58
2011-10-25 09:17 51°10.427 2°41.067 7.6 239 11.3 99840 59
2011-10-25 09:18 51°10.367 2°40.811 7.3 302 11.3 99830 59
2011-10-25 09:19 51°10.32 2°40.546 6.1 304 11.3 99840 58
2011-10-25 09:20 51°10.281 2°40.277 7.3 239 11.3 99840 59
2011-10-25 09:21 51°10.238 2°40.011 7.8 236 11.3 99840 58
2011-10-25 09:22 51°10.183 2°39.753 7.9 240 11.4 99850 58
2011-10-25 09:23 51°10.124 2°39.497 9 305 11.4 99840 59
2011-10-25 09:24 51°10.087 2°39.232 10.1 244 11.4 99850 59
2011-10-25 09:25 51°10.053 2°38.964 6.8 239 11.4 99850 59
2011-10-25 09:26 51°10.006 2°38.706 7.9 243 11.4 99850 59
2011-10-25 09:27 51°9.978 2°38.44 7.8 304 11.4 99850 58
2011-10-25 09:28 51°9.963 2°38.169 7 240 11.4 99850 59
2011-10-25 09:29 51°9.942 2°37.898 6.7 242 11.4 99850 58
2011-10-25 09:30 51°9.916 2°37.629 8.1 239 11.5 99840 58
2011-10-25 09:31 51°9.895 2°37.358 6.2 246 11.5 99850 58
2011-10-25 09:32 51°9.891 2°37.081 6.6 242 11.5 99840 59
2011-10-25 09:33 51°9.888 2°36.806 5.7 245 11.5 99850 58
2011-10-25 09:34 51°9.929 2°36.533 3.9 254 11.5 99850 59
2011-10-25 09:35 51°9.99 2°36.272 3.1 259 11.5 99850 58
2011-10-25 09:36 51°10.097 2°36.042 -999 55 11.5 99850 58
2011-10-25 09:37 51°10.258 2°35.868 -999 2 11.5 99850 58
2011-10-25 09:38 51°10.445 2°35.742 1.2 14 11.6 99850 58
2011-10-25 09:39 51°10.654 2°35.739 5.8 8 11.6 99850 58
2011-10-25 09:40 51°10.852 2°35.895 6.1 4 11.6 99850 59
2011-10-25 09:41 51°11.042 2°36.082 5.7 5 11.6 99850 59
2011-10-25 09:42 51°11.234 2°36.259 5.3 3 11.5 99830 59
2011-10-25 09:43 51°11.429 2°36.428 4.9 5 11.5 99830 58
2011-10-25 09:44 51°11.627 2°36.58 5.9 4 11.5 99840 59
2011-10-25 09:45 51°11.814 2°36.771 6.1 3 11.5 99830 58
2011-10-25 09:46 51°11.994 2°36.976 5.8 4 11.5 99830 59
2011-10-25 09:47 51°12.178 2°37.175 6.2 3 11.5 99820 58
2011-10-25 09:48 51°12.364 2°37.368 5.4 7 11.5 99830 58
2011-10-25 09:49 51°12.554 2°37.554 5.5 9 11.5 99830 58
2011-10-25 09:50 51°12.747 2°37.731 5.2 7 11.5 99830 58
2011-10-25 09:51 51°12.957 2°37.797 3.2 23 11.6 99840 59
2011-10-25 09:52 51°13.162 2°37.758 0.3 3 11.5 99840 59
2011-10-25 09:53 51°13.336 2°37.619 1.4 254 11.6 99840 59
2011-10-25 09:54 51°13.463 2°37.398 3 255 11.6 99850 58
2011-10-25 09:55 51°13.563 2°37.157 5.6 248 11.6 99850 58
2011-10-25 09:56 51°13.608 2°36.884 6.5 246 11.6 99840 57
2011-10-25 09:57 51°13.65 2°36.609 5.3 246 11.6 99840 59
2011-10-25 09:58 51°13.7 2°36.335 4.7 242 11.7 99840 58
2011-10-25 09:59 51°13.759 2°36.063 4.9 252 11.6 99840 58
2011-10-25 10:00 51°13.824 2°35.792 4.4 253 11.7 99830 58
2011-10-25 10:01 51°13.886 2°35.518 4.6 249 11.7 99830 59
2011-10-25 10:02 51°14.015 2°35.304 0.2 18 11.7 99840 58
2011-10-25 10:03 51°14.22 2°35.257 4.6 15 11.7 99830 59
2011-10-25 10:04 51°14.438 2°35.332 5.4 6 11.6 99830 56
2011-10-25 10:05 51°14.655 2°35.445 5.9 9 11.6 99820 59
2011-10-25 10:06 51°14.873 2°35.536 4.9 8 11.6 99830 58
2011-10-25 10:07 51°15.091 2°35.637 4.9 10 11.7 99830 58
2011-10-25 10:08 51°15.31 2°35.752 4.7 12 11.7 99820 58
2011-10-25 10:09 51°15.532 2°35.859 6.5 8 11.7 99830 58
2011-10-25 10:10 51°15.755 2°35.969 4.3 12 11.7 99840 58
2011-10-25 10:11 51°15.979 2°36.074 5.5 10 11.7 99820 58
2011-10-25 10:12 51°16.204 2°36.18 5.5 13 11.7 99830 57
2011-10-25 10:13 51°16.426 2°36.278 5.4 13 11.7 99830 58
2011-10-25 10:14 51°16.647 2°36.371 3.2 10 11.7 99830 59
2011-10-25 10:15 51°16.868 2°36.426 3.4 13 11.7 99820 58
2011-10-25 10:16 51°17.087 2°36.459 2.9 13 11.7 99830 58
2011-10-25 10:17 51°17.305 2°36.473 2.2 23 11.7 99820 59
2011-10-25 10:18 51°17.521 2°36.499 1.2 25 11.7 99830 59
2011-10-25 10:19 51°17.699 2°36.363 1.1 270 11.8 99840 58
2011-10-25 10:20 51°17.823 2°36.143 4.6 253 11.8 99830 59
2011-10-25 10:21 51°17.918 2°35.893 4.7 258 11.9 99830 59
2011-10-25 10:22 51°17.954 2°35.62 6.9 237 11.9 99840 58
2011-10-25 10:23 51°17.931 2°35.344 8.4 241 12 99820 58
2011-10-25 10:24 51°17.904 2°35.065 7.6 244 11.9 99820 58
2011-10-25 10:25 51°17.882 2°34.792 8.2 243 11.9 99820 59
2011-10-25 10:26 51°17.871 2°34.517 8.5 242 11.9 99830 58
2011-10-25 10:27 51°17.831 2°34.252 8.1 240 11.9 99810 59
2011-10-25 10:28 51°17.776 2°33.994 8.8 239 11.9 99810 59
2011-10-25 10:29 51°17.728 2°33.733 9.8 238 11.9 99810 58
2011-10-25 10:30 51°17.682 2°33.469 10 239 11.9 99810 58
2011-10-25 10:31 51°17.634 2°33.203 9.1 239 11.9 99810 59
2011-10-25 10:32 51°17.57 2°32.949 9.5 237 11.9 99810 58
2011-10-25 10:33 51°17.504 2°32.693 7.3 235 11.9 99810 59
2011-10-25 10:34 51°17.444 2°32.435 7.8 234 11.9 99810 58
2011-10-25 10:35 51°17.375 2°32.185 9.1 239 12 99810 59
2011-10-25 10:36 51°17.32 2°31.924 8.5 32 11.9 99810 58
2011-10-25 10:37 51°17.263 2°31.665 7.9 239 12 99810 58
2011-10-25 10:38 51°17.203 2°31.413 9 239 12 99810 58
2011-10-25 10:39 51°17.154 2°31.156 8.1 240 12 99820 58
2011-10-25 10:40 51°17.094 2°30.908 7.4 240 12 99820 58
2011-10-25 10:41 51°17.022 2°30.667 9.2 33 12.1 99820 59
2011-10-25 10:42 51°16.949 2°30.425 8.9 235 12.1 99810 59
2011-10-25 10:43 51°16.886 2°30.17 8 35 12.1 99810 58
2011-10-25 10:44 51°16.824 2°29.909 6.9 234 12.1 99820 59
2011-10-25 10:45 51°16.758 2°29.651 8.9 236 12.1 99820 58
2011-10-25 10:46 51°16.687 2°29.396 8.4 35 12.1 99820 59
2011-10-25 10:47 51°16.613 2°29.141 10.6 30 12.1 99810 59
2011-10-25 10:48 51°16.541 2°28.884 7.5 233 12.2 99810 58
2011-10-25 10:49 51°16.466 2°28.63 9 236 12.1 99820 59
2011-10-25 10:50 51°16.4 2°28.366 8.7 234 12.2 99820 58
2011-10-25 10:51 51°16.327 2°28.106 8.2 35 12.2 99820 58
2011-10-25 10:52 51°16.253 2°27.846 7.8 237 12.2 99810 59
2011-10-25 10:53 51°16.181 2°27.585 9 34 12.2 99810 58
2011-10-25 10:54 51°16.1 2°27.332 9 35 12.2 99820 59
2011-10-25 10:55 51°16.041 2°27.069 6.5 31 12.2 99810 58
2011-10-25 10:56 51°15.981 2°26.811 8.3 36 12.3 99820 59
2011-10-25 10:57 51°15.945 2°26.549 7.2 238 12.2 99820 59
2011-10-25 10:58 51°15.954 2°26.283 7.1 240 12.2 99830 58
2011-10-25 10:59 51°15.96 2°26.017 6.2 240 12.3 99830 58
2011-10-25 11:00 51°15.973 2°25.753 6.2 240 12.4 99820 58
2011-10-25 11:01 51°15.992 2°25.486 7.2 32 12.3 99830 58
2011-10-25 11:02 51°16.024 2°25.262 4.9 259 12.4 99820 58
2011-10-25 11:03 51°16.087 2°25.215 3.8 31 12.4 99840 59
2011-10-25 11:04 51°16.124 2°25.242 2.6 35 12.3 99830 57
2011-10-25 11:05 51°16.153 2°25.279 3.2 40 12.4 99830 57
2011-10-25 11:06 51°16.184 2°25.318 3.6 39 12.4 99840 59
2011-10-25 11:07 51°16.214 2°25.354 4.9 31 12.4 99830 57
2011-10-25 11:08 51°16.244 2°25.392 4.5 37 12.4 99840 58
2011-10-25 11:09 51°16.271 2°25.432 4 38 12.4 99830 58
2011-10-25 11:10 51°16.299 2°25.472 5.5 34 12.4 99830 57
2011-10-25 11:11 51°16.327 2°25.512 4.6 40 12.4 99830 58
2011-10-25 11:12 51°16.356 2°25.553 5 39 12.3 99840 58
2011-10-25 11:13 51°16.383 2°25.595 5.6 34 12.3 99830 59
2011-10-25 11:14 51°16.41 2°25.637 4.8 269 12.4 99840 58
2011-10-25 11:15 51°16.437 2°25.68 4.9 267 12.4 99840 58
2011-10-25 11:16 51°16.463 2°25.726 4.9 269 12.4 99840 59
2011-10-25 11:17 51°16.49 2°25.773 4.2 266 12.4 99840 58
2011-10-25 11:18 51°16.516 2°25.821 4.3 266 12.4 99840 58
2011-10-25 11:19 51°16.543 2°25.871 4.4 267 12.4 99830 59
2011-10-25 11:20 51°16.568 2°25.917 4.2 263 12.4 99840 58
2011-10-25 11:21 51°16.592 2°25.962 4.2 264 12.4 99830 57
2011-10-25 11:22 51°16.616 2°26.005 4.2 266 12.5 99830 59
2011-10-25 11:23 51°16.641 2°26.053 4.3 264 12.5 99840 59
2011-10-25 11:24 51°16.666 2°26.097 6 257 12.5 99840 59
2011-10-25 11:25 51°16.698 2°26.09 2.4 38 12.6 99830 57
2011-10-25 11:26 51°16.773 2°26.136 4.8 16 12.6 99820 58
2011-10-25 11:27 51°16.809 2°26.276 6.8 341 12.6 99830 58
2011-10-25 11:28 51°16.778 2°26.364 7.1 40 12.5 99830 58
2011-10-25 11:29 51°16.705 2°26.332 7.8 31 12.5 99810 58
2011-10-25 11:30 51°16.662 2°26.288 6.6 241 12.5 99820 57
2011-10-25 11:31 51°16.636 2°26.246 5.5 239 12.5 99830 58
2011-10-25 11:32 51°16.612 2°26.187 6.6 241 12.5 99820 58
2011-10-25 11:33 51°16.588 2°26.127 7.1 245 12.5 99830 59
2011-10-25 11:34 51°16.57 2°26.06 8.3 240 12.6 99830 58
2011-10-25 11:35 51°16.548 2°25.997 7.2 240 12.5 99830 57
2011-10-25 11:36 51°16.528 2°25.932 7.4 241 12.5 99830 59
2011-10-25 11:37 51°16.508 2°25.867 5.7 237 12.5 99830 57
2011-10-25 11:38 51°16.489 2°25.803 6.6 243 12.6 99820 58
2011-10-25 11:39 51°16.463 2°25.754 6.9 233 12.6 99830 59
2011-10-25 11:40 51°16.422 2°25.725 6 40 12.6 99820 59
2011-10-25 11:41 51°16.382 2°25.689 6.1 31 12.6 99820 58
2011-10-25 11:42 51°16.35 2°25.647 7.2 237 12.6 99830 58
2011-10-25 11:43 51°16.317 2°25.602 6.7 238 12.6 99830 58
2011-10-25 11:44 51°16.281 2°25.561 7.7 36 12.6 99830 58
2011-10-25 11:45 51°16.243 2°25.524 7.7 235 12.7 99820 59
2011-10-25 11:46 51°16.206 2°25.484 8.9 235 12.7 99830 58
2011-10-25 11:47 51°16.177 2°25.431 6.9 245 12.7 99830 59
2011-10-25 11:48 51°16.174 2°25.355 5.6 247 12.7 99830 58
2011-10-25 11:49 51°16.2 2°25.266 5.7 259 12.8 99840 58
2011-10-25 11:50 51°16.244 2°25.182 3.6 269 12.8 99840 59
2011-10-25 11:51 51°16.31 2°25.114 4.1 40 12.9 99840 58
2011-10-25 11:52 51°16.389 2°25.078 3.2 34 12.8 99840 58
2011-10-25 11:53 51°16.473 2°25.076 3.6 35 12.8 99850 58
2011-10-25 11:54 51°16.555 2°25.122 4.1 35 12.9 99840 58
2011-10-25 11:55 51°16.625 2°25.196 4.5 28 12.8 99830 58
2011-10-25 11:56 51°16.683 2°25.286 5.2 25 12.8 99840 59
2011-10-25 11:57 51°16.731 2°25.386 5.6 10 12.7 99840 57
2011-10-25 11:58 51°16.769 2°25.491 5.8 9 12.7 99840 58
2011-10-25 11:59 51°16.806 2°25.598 5.7 13 12.7 99840 57
2011-10-25 12:00 51°16.846 2°25.705 6.1 18 12.7 99840 58
2011-10-25 12:01 51°16.887 2°25.813 5.9 9 12.8 99850 58
2011-10-25 12:02 51°16.924 2°25.922 5.2 9 12.8 99840 59
2011-10-25 12:03 51°16.951 2°26.031 5.6 3 12.8 99830 59
2011-10-25 12:04 51°16.969 2°26.137 8 357 12.8 99840 57
2011-10-25 12:05 51°16.982 2°26.247 5.8 354 12.7 99840 59
2011-10-25 12:06 51°16.993 2°26.381 8.2 353 12.8 99830 59
2011-10-25 12:07 51°17.003 2°26.513 7.6 352 12.7 99840 58
2011-10-25 12:08 51°17.011 2°26.625 6.5 348 12.7 99830 58
2011-10-25 12:09 51°17.017 2°26.729 5.8 353 12.7 99820 59
2011-10-25 12:10 51°17.019 2°26.84 7.1 353 12.7 99830 58
2011-10-25 12:11 51°17.009 2°26.963 6.8 348 12.7 99830 58
2011-10-25 12:12 51°17.004 2°27.059 6.5 350 12.7 99830 58
2011-10-25 12:13 51°17.007 2°27.132 7.4 354 12.7 99830 57
2011-10-25 12:14 51°17.015 2°27.192 6.7 355 12.7 99840 59
2011-10-25 12:15 51°17.025 2°27.245 6.1 352 12.8 99840 58
2011-10-25 12:16 51°17.022 2°27.326 8.2 353 12.7 99850 58
2011-10-25 12:17 51°17.007 2°27.448 8.7 355 12.8 99850 58
2011-10-25 12:18 51°17.014 2°27.682 8.1 2 12.8 99840 58
2011-10-25 12:19 51°17.051 2°27.948 9.6 358 12.8 99840 58
2011-10-25 12:20 51°17.093 2°28.28 11.2 356 12.8 99840 58
2011-10-25 12:21 51°17.146 2°28.621 7.7 355 12.8 99840 59
2011-10-25 12:22 51°17.195 2°28.964 9.4 357 12.8 99850 58
2011-10-25 12:23 51°17.241 2°29.308 10.4 354 12.8 99840 58
2011-10-25 12:24 51°17.287 2°29.654 9.3 354 12.8 99840 58
2011-10-25 12:25 51°17.337 2°30 7.7 352 12.8 99840 58
2011-10-25 12:26 51°17.392 2°30.347 9.9 354 12.8 99830 58
2011-10-25 12:27 51°17.441 2°30.694 8.4 352 12.8 99830 58
2011-10-25 12:28 51°17.487 2°31.041 10 349 12.8 99840 59
2011-10-25 12:29 51°17.54 2°31.386 8.4 347 12.7 99830 58
2011-10-25 12:30 51°17.571 2°31.734 9.2 346 12.7 99830 57
2011-10-25 12:31 51°17.603 2°32.079 8.6 349 12.8 99830 58
2011-10-25 12:32 51°17.642 2°32.426 8.3 348 12.7 99830 58
2011-10-25 12:33 51°17.674 2°32.776 9.8 350 12.7 99840 58
2011-10-25 12:34 51°17.712 2°33.129 8.6 349 12.7 99840 58
2011-10-25 12:35 51°17.741 2°33.484 9 346 12.7 99840 58
2011-10-25 12:36 51°17.754 2°33.84 12.4 346 12.7 99830 58
2011-10-25 12:37 51°17.761 2°34.196 11.7 348 12.7 99830 58
2011-10-25 12:38 51°17.772 2°34.555 9.3 346 12.7 99840 58
2011-10-25 12:39 51°17.784 2°34.916 11.9 347 12.7 99840 58
2011-10-25 12:40 51°17.768 2°35.27 12.3 340 12.7 99840 58
2011-10-25 12:41 51°17.627 2°35.485 10.1 328 12.7 99840 58
2011-10-25 12:42 51°17.444 2°35.556 11.6 327 12.8 99840 58
2011-10-25 12:43 51°17.257 2°35.602 10.2 323 12.8 99840 58
2011-10-25 12:44 51°17.067 2°35.635 10 327 12.8 99840 58
2011-10-25 12:45 51°16.877 2°35.642 11.7 325 12.8 99840 58
2011-10-25 12:46 51°16.688 2°35.669 8.8 327 12.9 99840 58
2011-10-25 12:47 51°16.499 2°35.689 5.1 304 12.9 99840 58
2011-10-25 12:48 51°16.311 2°35.711 10.4 324 12.9 99840 58
2011-10-25 12:49 51°16.123 2°35.733 9.6 327 12.9 99840 58
2011-10-25 12:50 51°15.937 2°35.769 9.2 325 13 99840 59
2011-10-25 12:51 51°15.752 2°35.787 10.7 326 12.9 99840 58
2011-10-25 12:52 51°15.567 2°35.801 8.4 304 12.9 99850 58
2011-10-25 12:53 51°15.382 2°35.815 9.5 303 12.9 99840 58
2011-10-25 12:54 51°15.198 2°35.848 11.2 327 12.9 99850 58
2011-10-25 12:55 51°15.015 2°35.862 9.3 324 12.9 99850 58
2011-10-25 12:56 51°14.831 2°35.876 8.6 303 13 99850 58
2011-10-25 12:57 51°14.648 2°35.885 8.7 324 13 99850 58
2011-10-25 12:58 51°14.462 2°35.907 8.4 304 13 99850 58
2011-10-25 12:59 51°14.274 2°35.911 10 327 13 99860 58
2011-10-25 13:00 51°14.095 2°35.98 9.2 333 13 99850 58
2011-10-25 13:01 51°13.965 2°36.217 11.2 337 13 99840 58
2011-10-25 13:02 51°13.843 2°36.477 9.1 338 13 99850 58
2011-10-25 13:03 51°13.728 2°36.749 10.2 339 13 99850 57
2011-10-25 13:04 51°13.6 2°37.005 11.2 337 13 99840 58
2011-10-25 13:05 51°13.48 2°37.261 11.1 337 13.1 99860 58
2011-10-25 13:06 51°13.354 2°37.501 10.5 331 13.1 99860 58
2011-10-25 13:07 51°13.173 2°37.573 11 325 13.1 99850 58
2011-10-25 13:08 51°12.984 2°37.537 10.6 324 13 99860 58
2011-10-25 13:09 51°12.796 2°37.491 11.2 324 13.1 99860 58
2011-10-25 13:10 51°12.611 2°37.424 10.5 324 13.1 99850 58
2011-10-25 13:11 51°12.424 2°37.374 6.9 306 13.1 99850 58
2011-10-25 13:12 51°12.238 2°37.31 7.6 327 13.2 99850 58
2011-10-25 13:13 51°12.052 2°37.239 8 326 13.2 99850 58
2011-10-25 13:14 51°11.868 2°37.168 7.2 325 13.2 99850 58
2011-10-25 13:15 51°11.681 2°37.11 8.3 327 13.2 99840 57
2011-10-25 13:16 51°11.496 2°37.042 9.4 303 13.2 99840 57
2011-10-25 13:17 51°11.315 2°36.943 7 304 13.2 99850 58
2011-10-25 13:18 51°11.13 2°36.866 8.7 329 13.2 99860 57
2011-10-25 13:19 51°10.947 2°36.791 8.4 305 13.3 99860 58
2011-10-25 13:20 51°10.766 2°36.7 8.8 327 13.3 99860 57
2011-10-25 13:21 51°10.587 2°36.617 10.4 325 13.3 99860 58
2011-10-25 13:22 51°10.407 2°36.609 8.4 332 13.3 99850 58
2011-10-25 13:23 51°10.278 2°36.842 9.3 339 13.4 99850 58
2011-10-25 13:24 51°10.218 2°37.163 8.1 341 13.4 99850 57
2011-10-25 13:25 51°10.26 2°37.495 7.3 346 13.4 99850 58
2011-10-25 13:26 51°10.32 2°37.824 7.1 350 13.4 99860 57
2011-10-25 13:27 51°10.368 2°38.156 6.2 346 13.3 99860 58
2011-10-25 13:28 51°10.402 2°38.495 8.1 345 13.3 99860 58
2011-10-25 13:29 51°10.438 2°38.834 6.8 343 13.3 99850 58
2011-10-25 13:30 51°10.469 2°39.176 7.5 345 13.3 99860 58
2011-10-25 13:31 51°10.509 2°39.515 7.9 346 13.3 99860 58
2011-10-25 13:32 51°10.543 2°39.852 7.8 343 13.2 99860 57
2011-10-25 13:33 51°10.597 2°40.184 7 345 13.3 99860 58
2011-10-25 13:34 51°10.645 2°40.519 8 347 13.2 99850 57
2011-10-25 13:35 51°10.699 2°40.847 8.5 350 13.3 99860 57
2011-10-25 13:36 51°10.746 2°41.176 7.4 345 13.2 99850 57
2011-10-25 13:37 51°10.802 2°41.501 7.2 349 13.2 99860 58
2011-10-25 13:38 51°10.865 2°41.824 7.3 349 13.2 99860 58
2011-10-25 13:39 51°10.922 2°42.149 7.2 348 13.2 99860 57
2011-10-25 13:40 51°10.978 2°42.475 8 345 13.2 99860 58
2011-10-25 13:41 51°11.039 2°42.799 8.2 349 13.2 99850 58
2011-10-25 13:42 51°11.101 2°43.122 10.7 348 13.2 99860 57
2011-10-25 13:43 51°11.159 2°43.445 7.5 348 13.2 99850 57
2011-10-25 13:44 51°11.235 2°43.758 7.2 347 13.2 99860 57
2011-10-25 13:45 51°11.298 2°44.076 10.1 349 13.1 99860 58
2011-10-25 13:46 51°11.373 2°44.385 9.9 351 13.1 99850 58
2011-10-25 13:47 51°11.436 2°44.7 9.1 347 13.1 99850 57
2011-10-25 13:48 51°11.444 2°45.029 9.4 347 13 99860 57
2011-10-25 13:49 51°11.459 2°45.357 8.1 346 13 99850 57
2011-10-25 13:50 51°11.486 2°45.683 9.9 349 13 99860 57
2011-10-25 13:51 51°11.539 2°46.002 8.3 348 13 99860 57
2011-10-25 13:52 51°11.581 2°46.323 7.5 348 13 99860 57
2011-10-25 13:53 51°11.627 2°46.643 8.2 348 13 99870 57
2011-10-25 13:54 51°11.679 2°46.959 8.5 349 13 99870 58
2011-10-25 13:55 51°11.732 2°47.273 10.4 344 13 99870 57
2011-10-25 13:56 51°11.764 2°47.593 10.7 347 13 99870 58
2011-10-25 13:57 51°11.792 2°47.836 5.9 355 13 99870 57
2011-10-25 13:58 51°11.816 2°47.952 5 360 12.9 99880 58
2011-10-25 13:59 51°11.846 2°48.018 3.8 28 13 99890 57
2011-10-25 14:00 51°11.94 2°48.085 4.1 6 13 99890 57
2011-10-25 14:01 51°12.034 2°48.209 5.5 6 13 99890 57
2011-10-25 14:02 51°12.078 2°48.308 3.1 6 13 99890 58
2011-10-25 14:03 51°12.116 2°48.386 5.4 8 12.9 99900 58
2011-10-25 14:04 51°12.149 2°48.462 3.6 3 13 99890 58
2011-10-25 14:05 51°12.18 2°48.537 4.7 7 13 99890 57
2011-10-25 14:06 51°12.213 2°48.616 6.1 6 13 99890 58
2011-10-25 14:07 51°12.252 2°48.69 5.4 16 13 99890 57
2011-10-25 14:08 51°12.297 2°48.758 5.7 10 13 99890 58
2011-10-25 14:09 51°12.342 2°48.824 5.4 14 13 99890 58
2011-10-25 14:10 51°12.388 2°48.891 5.6 12 12.9 99890 58
2011-10-25 14:11 51°12.432 2°48.96 5.7 12 12.9 99890 58
2011-10-25 14:12 51°12.475 2°49.031 6.1 9 13 99890 57
2011-10-25 14:13 51°12.518 2°49.102 5.9 9 12.9 99890 57
2011-10-25 14:14 51°12.562 2°49.172 6 10 13 99890 58
2011-10-25 14:15 51°12.606 2°49.241 6.2 8 13 99890 58
2011-10-25 14:16 51°12.65 2°49.31 6.7 10 13 99890 57
2011-10-25 14:17 51°12.692 2°49.383 3.9 5 13 99890 57
2011-10-25 14:18 51°12.719 2°49.466 6.3 1 13 99880 57
2011-10-25 14:19 51°12.743 2°49.549 5.5 2 13 99880 57
2011-10-25 14:20 51°12.76 2°49.634 5.4 357 12.9 99890 58
2011-10-25 14:21 51°12.767 2°49.721 7.5 352 12.9 99890 58
2011-10-25 14:22 51°12.762 2°49.809 6.5 349 12.9 99890 58
2011-10-25 14:23 51°12.761 2°49.885 6.6 350 12.9 99890 58
2011-10-25 14:24 51°12.816 2°50.054 7 356 12.9 99880 58
2011-10-25 14:25 51°12.901 2°50.177 4.9 17 12.9 99890 58
2011-10-25 14:26 51°12.959 2°50.204 3.5 29 12.9 99900 58
2011-10-25 14:27 51°13.009 2°50.225 5.9 7 12.9 99900 57
2011-10-25 14:28 51°13.098 2°50.373 7.6 357 12.9 99890 57
2011-10-25 14:29 51°13.212 2°50.573 7.5 355 12.9 99890 58
2011-10-25 14:30 51°13.324 2°50.789 6.8 353 12.9 99890 58
2011-10-25 14:31 51°13.429 2°51.01 9.2 349 12.9 99890 58
2011-10-25 14:32 51°13.462 2°51.28 8.2 345 12.9 99890 58
2011-10-25 14:33 51°13.42 2°51.425 5.3 325 12.9 99890 59
2011-10-25 14:34 51°13.383 2°51.43 4.9 241 12.9 99900 57
2011-10-25 14:35 51°13.38 2°51.424 4.2 255 13 99900 57
2011-10-25 14:36 51°13.382 2°51.419 3.3 262 13 99900 59
2011-10-25 14:37 51°13.384 2°51.413 2.1 265 13 99910 58
2011-10-25 14:38 51°13.385 2°51.408 3.1 34 13 99920 59
2011-10-25 14:39 51°13.386 2°51.401 3.1 34 13 99920 58
2011-10-25 14:40 51°13.388 2°51.394 3.6 39 13 99920 58
2011-10-25 14:41 51°13.391 2°51.387 3.8 270 13 99910 59
2011-10-25 14:42 51°13.393 2°51.378 4 268 13 99920 57
2011-10-25 14:43 51°13.394 2°51.369 3.7 35 13 99920 58
2011-10-25 14:44 51°13.396 2°51.36 3.4 268 13.1 99920 57
2011-10-25 14:45 51°13.398 2°51.35 4.1 270 13.1 99910 57
2011-10-25 14:46 51°13.4 2°51.341 4.1 269 13 99910 57
2011-10-25 14:47 51°13.402 2°51.331 4.9 262 13.1 99920 57
2011-10-25 14:48 51°13.404 2°51.321 5.7 261 13.1 99920 57
2011-10-25 14:49 51°13.404 2°51.307 5.7 252 13.1 99920 58
2011-10-25 14:50 51°13.373 2°51.286 6.4 322 13.1 99920 57
2011-10-25 14:51 51°13.341 2°51.327 5 346 13.1 99920 58
2011-10-25 14:52 51°13.329 2°51.478 8.1 345 13.1 99910 58
2011-10-25 14:53 51°13.384 2°51.708 7.5 353 13.1 99910 57
2011-10-25 14:54 51°13.498 2°51.923 6.8 353 13.1 99920 58
2011-10-25 14:55 51°13.626 2°52.154 7.8 350 13.1 99920 58
2011-10-25 14:56 51°13.736 2°52.415 6.8 351 13.1 99910 58
2011-10-25 14:57 51°13.846 2°52.678 6.7 351 13.1 99920 58
2011-10-25 14:58 51°13.967 2°52.927 7.4 352 13.1 99920 58
2011-10-25 14:59 51°14.099 2°53.161 7 354 13.1 99920 58
2011-10-25 15:00 51°14.233 2°53.392 6.7 351 13.1 99920 58
2011-10-25 15:01 51°14.364 2°53.626 6.3 350 13.1 99920 57
2011-10-25 15:02 51°14.48 2°53.876 7.6 352 13.1 99920 57
2011-10-25 15:03 51°14.594 2°54.125 7.5 351 13.1 99930 57
2011-10-25 15:04 51°14.664 2°54.366 7.7 342 13.1 99920 58
2011-10-25 15:05 51°14.63 2°54.617 8.8 344 13.1 99920 57
2011-10-25 15:06 51°14.581 2°54.865 8.5 339 13.2 99920 57
2011-10-25 15:07 51°14.483 2°55.068 10.3 331 13.2 99920 58
2011-10-25 15:08 51°14.346 2°55.226 9.1 332 13.3 99920 57
2011-10-25 15:09 51°14.204 2°55.361 8.1 329 13.3 99920 57
2011-10-25 15:10 51°14.075 2°55.458 7.8 332 13.3 99930 57
2011-10-25 15:11 51°13.968 2°55.531 6.1 329 13.3 99930 57
2011-10-25 15:12 51°13.875 2°55.596 6.8 328 13.4 99930 57
2011-10-25 15:13 51°13.784 2°55.67 6.6 335 13.4 99940 57
2011-10-25 15:14 51°13.727 2°55.763 5.2 335 13.4 99940 56
2011-10-25 15:15 51°13.683 2°55.854 6.3 335 13.4 99940 56
2011-10-25 15:16 51°13.65 2°55.941 4.6 341 13.4 99940 56
2011-10-25 15:17 51°13.638 2°56.008 3.5 343 13.4 99940 57
2011-10-25 15:18 51°13.636 2°56.017 3.2 340 13.4 99940 58
2011-10-25 15:19 51°13.636 2°56.018 3 341 13.4 99940 57
2011-10-25 15:20 51°13.636 2°56.019 2 336 13.5 99940 57